Time;durP1;ratioP1;P1;durP2;ratioP2;P2;SDS_P1;SDS_P2;PMS_P1;PMS_P2;Temp;Humidity;BMP_temperature;BMP_pressure;BME280_temperature;BME280_humidity;BME280_pressure;Samples;Min_cycle;Max_cycle;Signal;HPM_P1;HPM_P2
2022/06/10 00:01:05;;;;;;;4.90;2.65;;;;;;;;;;5045007;28;20191;-82
2022/06/10 00:03:32;;;;;;;3.28;2.25;;;;;;;;;;5047353;28;20203;-83
2022/06/10 00:06:01;;;;;;;2.25;2.05;;;;;;;;;;5045179;28;20196;-84
2022/06/10 00:08:29;;;;;;;3.22;2.72;;;;;;;;;;5034385;28;20269;-83
2022/06/10 00:10:58;;;;;;;3.03;1.80;;;;;;;;;;5043670;28;20196;-83
2022/06/10 00:13:26;;;;;;;4.80;2.38;;;;;;;;;;5044498;28;20223;-82
2022/06/10 00:15:54;;;;;;;4.43;3.17;;;;;;;;;;5046315;28;20206;-83
2022/06/10 00:18:22;;;;;;;2.40;2.20;;;;;;;;;;5052025;28;20230;-82
2022/06/10 00:20:49;;;;;;;4.32;1.90;;;;;;;;;;5044122;28;20195;-82
2022/06/10 00:23:16;;;;;;;2.80;1.80;;;;;;;;;;5043464;28;20199;-83
2022/06/10 00:25:43;;;;;;;2.78;2.03;;;;;;;;;;5051303;28;20558;-82
2022/06/10 00:28:12;;;;;;;2.97;1.98;;;;;;;;;;5051422;28;20199;-82
2022/06/10 00:30:39;;;;;;;2.80;1.95;;;;;;;;;;5044119;28;20199;-82
2022/06/10 00:33:07;;;;;;;2.92;2.60;;;;;;;;;;5053067;28;20269;-82
2022/06/10 00:35:34;;;;;;;2.35;2.15;;;;;;;;;;5047271;28;20215;-83
2022/06/10 00:38:01;;;;;;;2.15;2.00;;;;;;;;;;5034810;28;20558;-83
2022/06/10 00:40:31;;;;;;;2.88;2.63;;;;;;;;;;5045265;28;20199;-82
2022/06/10 00:42:58;;;;;;;2.80;2.13;;;;;;;;;;5041082;28;20736;-84
2022/06/10 00:45:44;;;;;;;1.83;1.70;;;;;;;;;;5049436;28;20287;-81
2022/06/10 00:48:15;;;;;;;2.50;2.30;;;;;;;;;;5054850;28;20615;-81
2022/06/10 00:50:42;;;;;;;2.42;2.17;;;;;;;;;;5052417;28;20451;-81
2022/06/10 00:53:12;;;;;;;2.03;1.60;;;;;;;;;;5063697;28;20198;-81
2022/06/10 00:55:39;;;;;;;3.78;2.30;;;;;;;;;;5073197;28;20615;-81
2022/06/10 00:58:08;;;;;;;3.80;2.55;;;;;;;;;;5057880;28;20199;-83
2022/06/10 01:00:37;;;;;;;2.78;1.88;;;;;;;;;;5037060;28;20200;-81
2022/06/10 01:03:05;;;;;;;1.98;1.83;;;;;;;;;;5048216;28;20343;-83
2022/06/10 01:05:34;;;;;;;2.10;1.90;;;;;;;;;;5049449;28;20238;-82
2022/06/10 01:08:02;;;;;;;2.92;2.05;;;;;;;;;;5039494;28;20654;-83
2022/06/10 01:10:31;;;;;;;4.13;2.47;;;;;;;;;;5048142;28;20214;-81
2022/06/10 01:13:04;;;;;;;2.08;1.88;;;;;;;;;;5052356;28;20198;-82
2022/06/10 01:15:34;;;;;;;2.67;2.47;;;;;;;;;;5037764;28;20192;-82
2022/06/10 01:18:13;;;;;;;2.22;2.03;;;;;;;;;;5052795;28;20206;-83
2022/06/10 01:20:45;;;;;;;1.67;1.58;;;;;;;;;;5046151;28;20654;-82
2022/06/10 01:23:28;;;;;;;3.00;2.08;;;;;;;;;;5039039;28;20200;-82
2022/06/10 01:26:21;;;;;;;3.25;2.10;;;;;;;;;;5042651;28;20231;-82
2022/06/10 01:28:59;;;;;;;2.20;2.00;;;;;;;;;;5050436;28;20199;-81
2022/06/10 01:31:30;;;;;;;2.83;2.05;;;;;;;;;;5044330;28;20534;-82
2022/06/10 01:34:07;;;;;;;2.85;2.33;;;;;;;;;;5051763;28;20245;-82
2022/06/10 01:36:39;;;;;;;2.20;2.00;;;;;;;;;;5059538;28;20209;-83
2022/06/10 01:39:07;;;;;;;3.42;2.25;;;;;;;;;;5043228;28;20211;-83
2022/06/10 01:41:38;;;;;;;3.65;2.00;;;;;;;;;;5051915;28;20215;-83
2022/06/10 01:44:09;;;;;;;2.20;2.00;;;;;;;;;;5043374;28;20642;-83
2022/06/10 01:46:41;;;;;;;2.60;2.40;;;;;;;;;;5041085;28;20207;-84
2022/06/10 01:49:11;;;;;;;3.97;2.20;;;;;;;;;;5032728;28;20286;-83
2022/06/10 01:51:46;;;;;;;1.80;1.70;;;;;;;;;;5044604;28;20669;-83
2022/06/10 01:54:18;;;;;;;2.05;1.85;;;;;;;;;;5048435;28;20644;-83
2022/06/10 01:56:47;;;;;;;2.50;2.10;;;;;;;;;;5052191;28;20194;-82
2022/06/10 01:59:18;;;;;;;3.65;2.17;;;;;;;;;;5048627;28;20689;-82
2022/06/10 02:01:49;;;;;;;3.17;1.95;;;;;;;;;;5043258;28;20206;-82
2022/06/10 02:04:19;;;;;;;2.15;1.95;;;;;;;;;;5037751;28;20223;-82
2022/06/10 02:06:48;;;;;;;3.40;1.75;;;;;;;;;;5051009;28;20206;-82
2022/06/10 02:09:17;;;;;;;2.22;1.90;;;;;;;;;;5055586;28;20191;-87
2022/06/10 02:11:47;;;;;;;2.17;1.95;;;;;;;;;;5047841;28;20200;-87
2022/06/10 02:14:16;;;;;;;2.10;1.90;;;;;;;;;;5048749;28;20207;-87
2022/06/10 02:16:45;;;;;;;2.08;1.88;;;;;;;;;;5044483;28;20764;-86
2022/06/10 02:19:16;;;;;;;2.10;1.73;;;;;;;;;;5038314;28;20223;-87
2022/06/10 02:21:45;;;;;;;2.10;1.90;;;;;;;;;;5046628;28;20199;-88
2022/06/10 02:24:16;;;;;;;4.53;2.10;;;;;;;;;;5051782;28;20207;-88
2022/06/10 02:26:44;;;;;;;2.53;1.60;;;;;;;;;;5053622;28;20621;-89
2022/06/10 02:29:12;;;;;;;2.17;1.98;;;;;;;;;;5045990;28;20207;-88
2022/06/10 02:31:41;;;;;;;2.10;1.90;;;;;;;;;;5043783;28;20207;-90
2022/06/10 02:34:09;;;;;;;1.70;1.60;;;;;;;;;;5051141;28;20218;-87
2022/06/10 02:36:39;;;;;;;1.80;1.70;;;;;;;;;;5046470;28;20202;-90
2022/06/10 02:39:09;;;;;;;3.00;2.17;;;;;;;;;;5052647;28;20218;-90
2022/06/10 02:41:39;;;;;;;2.40;2.20;;;;;;;;;;5050774;28;20578;-88
2022/06/10 02:44:10;;;;;;;2.20;2.00;;;;;;;;;;5050833;28;20326;-87
2022/06/10 02:46:40;;;;;;;2.30;2.10;;;;;;;;;;5051522;28;20678;-88
2022/06/10 02:49:09;;;;;;;1.92;1.75;;;;;;;;;;5051975;28;20195;-88
2022/06/10 02:51:38;;;;;;;4.15;2.63;;;;;;;;;;5039690;28;20199;-86
2022/06/10 02:54:07;;;;;;;1.75;1.65;;;;;;;;;;5036110;28;20199;-85
2022/06/10 02:56:34;;;;;;;2.80;1.90;;;;;;;;;;5047270;28;20199;-82
2022/06/10 03:01:50;;;;;;;2.33;1.83;;;;;;;;;;5043772;28;20197;-80
2022/06/10 03:04:22;;;;;;;1.98;1.80;;;;;;;;;;5044533;28;20191;-80
2022/06/10 03:07:04;;;;;;;3.58;1.98;;;;;;;;;;5042160;28;20620;-79
2022/06/10 03:09:37;;;;;;;2.28;1.73;;;;;;;;;;5043195;28;20195;-80
2022/06/10 03:12:08;;;;;;;2.47;2.17;;;;;;;;;;5030954;28;20579;-79
2022/06/10 03:14:41;;;;;;;3.22;2.60;;;;;;;;;;5039503;28;20199;-80
2022/06/10 03:17:11;;;;;;;4.60;2.67;;;;;;;;;;5045665;28;20211;-79
2022/06/10 03:19:43;;;;;;;1.90;1.60;;;;;;;;;;5034937;28;20224;-79
2022/06/10 03:22:16;;;;;;;1.70;1.60;;;;;;;;;;5042428;28;20236;-79
2022/06/10 03:24:48;;;;;;;1.98;1.77;;;;;;;;;;5043332;28;20199;-80
2022/06/10 03:27:16;;;;;;;2.80;2.20;;;;;;;;;;5049855;28;20198;-81
2022/06/10 03:29:50;;;;;;;4.93;2.08;;;;;;;;;;5044390;28;20242;-81
2022/06/10 03:32:21;;;;;;;3.35;2.30;;;;;;;;;;5045327;28;20202;-80
2022/06/10 03:34:51;;;;;;;2.72;2.30;;;;;;;;;;5059078;28;20210;-81
2022/06/10 03:37:19;;;;;;;3.55;1.98;;;;;;;;;;5051105;28;20202;-80
2022/06/10 03:39:52;;;;;;;2.22;1.90;;;;;;;;;;5052305;28;20326;-82
2022/06/10 03:42:20;;;;;;;2.10;1.90;;;;;;;;;;5038566;28;20227;-81
2022/06/10 03:44:49;;;;;;;1.75;1.63;;;;;;;;;;5034993;28;20652;-81
2022/06/10 03:47:18;;;;;;;2.90;1.83;;;;;;;;;;5048146;28;20773;-81
2022/06/10 03:49:48;;;;;;;2.58;2.38;;;;;;;;;;5050863;28;20654;-81
2022/06/10 03:52:19;;;;;;;4.25;2.10;;;;;;;;;;5053233;28;20210;-81
2022/06/10 03:54:46;;;;;;;2.85;2.63;;;;;;;;;;5052436;28;20195;-82
2022/06/10 03:57:16;;;;;;;3.13;2.45;;;;;;;;;;5054621;28;20195;-82
2022/06/10 03:59:44;;;;;;;1.85;1.75;;;;;;;;;;5045904;28;20234;-82
2022/06/10 04:02:11;;;;;;;2.50;1.95;;;;;;;;;;5048852;28;20689;-83
2022/06/10 04:04:39;;;;;;;2.30;2.10;;;;;;;;;;5047322;28;20693;-83
2022/06/10 04:07:06;;;;;;;2.58;2.38;;;;;;;;;;5049584;28;20666;-84
2022/06/10 04:09:33;;;;;;;3.13;1.92;;;;;;;;;;5052521;28;20543;-84
2022/06/10 04:12:00;;;;;;;2.70;1.95;;;;;;;;;;5050043;28;20670;-84
2022/06/10 04:14:28;;;;;;;3.60;2.35;;;;;;;;;;5058425;28;20207;-83
2022/06/10 04:16:55;;;;;;;2.38;2.17;;;;;;;;;;5050350;28;20203;-81
2022/06/10 04:19:23;;;;;;;5.53;2.47;;;;;;;;;;5048916;28;20224;-84
2022/06/10 04:21:50;;;;;;;3.38;2.78;;;;;;;;;;5048361;28;20681;-84
2022/06/10 04:24:17;;;;;;;2.20;1.92;;;;;;;;;;5051242;28;20210;-81
2022/06/10 04:26:44;;;;;;;2.75;2.55;;;;;;;;;;5049661;28;20922;-81
2022/06/10 04:29:13;;;;;;;2.17;2.00;;;;;;;;;;5051945;28;20203;-81
2022/06/10 04:31:42;;;;;;;2.85;2.60;;;;;;;;;;5039414;28;20214;-82
2022/06/10 04:34:11;;;;;;;2.20;2.00;;;;;;;;;;5045146;28;20743;-82
2022/06/10 04:36:38;;;;;;;3.67;2.45;;;;;;;;;;5047297;28;20295;-82
2022/06/10 04:39:06;;;;;;;2.47;2.17;;;;;;;;;;5044602;28;20203;-82
2022/06/10 04:41:33;;;;;;;5.72;2.13;;;;;;;;;;5048588;28;20711;-82
2022/06/10 04:44:00;;;;;;;2.17;2.03;;;;;;;;;;5051063;28;20665;-82
2022/06/10 04:46:29;;;;;;;3.08;2.78;;;;;;;;;;5049147;28;20203;-82
2022/06/10 04:48:57;;;;;;;2.35;1.90;;;;;;;;;;5067480;28;20198;-80
2022/06/10 04:51:25;;;;;;;4.47;2.38;;;;;;;;;;5045046;28;20199;-83
2022/06/10 04:53:52;;;;;;;2.95;2.50;;;;;;;;;;5050871;28;20191;-80
2022/06/10 04:56:19;;;;;;;2.42;2.22;;;;;;;;;;5045231;28;20200;-82
2022/06/10 04:58:46;;;;;;;2.40;1.95;;;;;;;;;;5045956;28;20199;-81
2022/06/10 05:01:13;;;;;;;2.40;2.20;;;;;;;;;;5040541;28;20229;-82
2022/06/10 05:03:40;;;;;;;3.15;2.03;;;;;;;;;;5047429;28;20226;-81
2022/06/10 05:06:09;;;;;;;2.92;2.30;;;;;;;;;;5044068;28;20249;-81
2022/06/10 05:08:36;;;;;;;3.15;2.10;;;;;;;;;;5033537;28;20207;-81
2022/06/10 05:11:03;;;;;;;2.38;2.17;;;;;;;;;;5044668;28;20207;-81
2022/06/10 05:13:30;;;;;;;3.55;2.15;;;;;;;;;;5049699;28;20208;-82
2022/06/10 05:15:57;;;;;;;4.70;3.15;;;;;;;;;;5045026;28;20745;-80
2022/06/10 05:18:26;;;;;;;2.40;2.20;;;;;;;;;;5051314;28;20211;-82
2022/06/10 05:20:54;;;;;;;3.00;2.70;;;;;;;;;;5048719;28;20637;-82
2022/06/10 05:23:23;;;;;;;3.63;2.50;;;;;;;;;;5050463;28;20234;-80
2022/06/10 05:25:50;;;;;;;3.33;2.53;;;;;;;;;;5049466;28;20262;-80
2022/06/10 05:28:18;;;;;;;3.08;2.88;;;;;;;;;;5055347;28;20559;-80
2022/06/10 05:30:45;;;;;;;2.70;2.20;;;;;;;;;;5041657;28;20199;-81
2022/06/10 05:33:13;;;;;;;2.47;2.28;;;;;;;;;;5054522;28;20199;-81
2022/06/10 05:35:41;;;;;;;3.55;2.28;;;;;;;;;;5035017;28;20203;-81
2022/06/10 05:38:08;;;;;;;1.83;1.73;;;;;;;;;;5041504;28;20208;-81
2022/06/10 05:40:37;;;;;;;3.13;2.83;;;;;;;;;;5047690;28;20222;-83
2022/06/10 05:43:04;;;;;;;2.15;1.90;;;;;;;;;;5038230;28;20226;-82
2022/06/10 05:45:31;;;;;;;2.33;1.40;;;;;;;;;;5047601;28;20290;-81
2022/06/10 05:48:00;;;;;;;2.22;1.90;;;;;;;;;;5039225;28;20199;-81
2022/06/10 05:50:28;;;;;;;2.72;1.50;;;;;;;;;;5031807;28;20647;-79
2022/06/10 05:52:55;;;;;;;1.52;1.42;;;;;;;;;;5049770;28;20292;-80
2022/06/10 05:55:23;;;;;;;1.95;1.63;;;;;;;;;;5051941;28;20195;-79
2022/06/10 05:57:51;;;;;;;2.17;1.50;;;;;;;;;;5038192;28;20628;-80
2022/06/10 06:00:21;;;;;;;1.60;1.50;;;;;;;;;;5036611;28;20266;-80
2022/06/10 06:02:48;;;;;;;2.75;1.35;;;;;;;;;;5044508;28;20202;-79
2022/06/10 06:05:15;;;;;;;1.60;1.40;;;;;;;;;;5040838;28;20203;-79
2022/06/10 06:07:44;;;;;;;2.10;1.52;;;;;;;;;;5048148;28;20210;-80
2022/06/10 06:10:12;;;;;;;5.00;2.08;;;;;;;;;;5047211;28;20202;-79
2022/06/10 06:12:39;;;;;;;2.78;1.75;;;;;;;;;;5044190;28;20211;-79
2022/06/10 06:15:09;;;;;;;4.75;2.03;;;;;;;;;;5038347;28;20570;-80
2022/06/10 06:17:36;;;;;;;1.55;1.45;;;;;;;;;;5044243;28;20196;-80
2022/06/10 06:20:03;;;;;;;1.30;1.20;;;;;;;;;;5047894;28;20220;-80
2022/06/10 06:22:30;;;;;;;1.65;1.55;;;;;;;;;;5044930;28;20202;-82
2022/06/10 06:24:57;;;;;;;1.50;1.20;;;;;;;;;;5043420;28;20203;-80
2022/06/10 06:27:24;;;;;;;3.00;1.20;;;;;;;;;;5056089;28;20206;-82
2022/06/10 06:29:51;;;;;;;1.73;1.52;;;;;;;;;;5039160;28;20200;-79
2022/06/10 06:32:19;;;;;;;1.60;1.30;;;;;;;;;;5035012;28;20204;-79
2022/06/10 06:34:47;;;;;;;1.60;1.45;;;;;;;;;;5043879;28;20295;-81
2022/06/10 06:37:15;;;;;;;2.60;1.70;;;;;;;;;;5049940;28;20202;-79
2022/06/10 06:39:42;;;;;;;1.58;1.30;;;;;;;;;;5052563;28;20570;-79
2022/06/10 06:42:10;;;;;;;3.25;1.50;;;;;;;;;;5046116;28;20223;-80
2022/06/10 06:44:37;;;;;;;3.08;1.85;;;;;;;;;;5045147;28;20253;-80
2022/06/10 06:47:04;;;;;;;3.80;1.70;;;;;;;;;;5054471;28;20207;-79
2022/06/10 06:49:33;;;;;;;4.95;2.35;;;;;;;;;;5048756;28;20210;-82
2022/06/10 06:52:00;;;;;;;1.75;1.38;;;;;;;;;;5046856;28;20669;-76
2022/06/10 06:54:28;;;;;;;1.73;1.10;;;;;;;;;;5049573;28;20654;-79
2022/06/10 06:56:57;;;;;;;3.00;1.35;;;;;;;;;;5051098;28;20276;-76
2022/06/10 06:59:24;;;;;;;4.18;1.45;;;;;;;;;;5042679;28;20536;-78
2022/06/10 07:01:51;;;;;;;1.95;1.80;;;;;;;;;;5036804;28;20227;-77
2022/06/10 07:04:18;;;;;;;4.22;1.95;;;;;;;;;;5036881;28;20210;-78
2022/06/10 07:06:46;;;;;;;2.95;1.25;;;;;;;;;;5039458;28;20392;-77
2022/06/10 07:09:14;;;;;;;2.38;1.25;;;;;;;;;;5041846;28;20202;-79
2022/06/10 07:11:41;;;;;;;2.80;1.40;;;;;;;;;;5046112;28;20222;-81
2022/06/10 07:14:08;;;;;;;3.70;1.85;;;;;;;;;;5044462;28;20205;-78
2022/06/10 07:16:36;;;;;;;2.03;1.40;;;;;;;;;;5042342;28;20258;-80
2022/06/10 07:19:04;;;;;;;1.75;1.30;;;;;;;;;;5040940;28;20214;-78
2022/06/10 07:21:31;;;;;;;2.65;1.80;;;;;;;;;;5043238;28;20226;-79
2022/06/10 07:24:00;;;;;;;2.53;1.67;;;;;;;;;;5051436;28;20203;-78
2022/06/10 07:26:27;;;;;;;2.30;1.48;;;;;;;;;;5049183;28;20199;-77
2022/06/10 07:28:54;;;;;;;5.22;1.52;;;;;;;;;;5043400;28;20199;-78
2022/06/10 07:31:21;;;;;;;3.78;1.35;;;;;;;;;;5042266;28;20719;-77
2022/06/10 07:33:48;;;;;;;2.80;1.38;;;;;;;;;;5052189;28;20573;-77
2022/06/10 07:36:15;;;;;;;2.67;1.45;;;;;;;;;;5029859;28;20260;-80
2022/06/10 07:38:43;;;;;;;2.10;1.20;;;;;;;;;;5038257;28;20551;-77
2022/06/10 07:43:56;;;;;;;1.90;1.23;;;;;;;;;;5041793;28;20587;-78
2022/06/10 07:46:24;;;;;;;2.50;1.52;;;;;;;;;;5047474;28;20278;-78
2022/06/10 07:48:51;;;;;;;2.00;1.58;;;;;;;;;;5044834;28;20195;-77
2022/06/10 07:51:19;;;;;;;2.70;1.75;;;;;;;;;;5043390;28;20195;-78
2022/06/10 07:53:46;;;;;;;3.78;1.25;;;;;;;;;;5047931;28;20222;-78
2022/06/10 07:56:15;;;;;;;2.28;1.25;;;;;;;;;;5050540;28;20203;-75
2022/06/10 07:58:43;;;;;;;1.83;1.40;;;;;;;;;;5034919;28;20199;-75
2022/06/10 08:01:10;;;;;;;2.10;1.58;;;;;;;;;;5040518;28;20598;-76
2022/06/10 08:03:38;;;;;;;2.67;1.20;;;;;;;;;;5045676;28;20203;-76
2022/06/10 08:06:05;;;;;;;2.53;1.65;;;;;;;;;;5044963;28;20203;-77
2022/06/10 08:08:32;;;;;;;1.58;1.30;;;;;;;;;;5037980;28;20549;-76
2022/06/10 08:11:00;;;;;;;1.20;1.10;;;;;;;;;;5042487;28;20203;-75
2022/06/10 08:13:29;;;;;;;2.25;1.67;;;;;;;;;;5043106;28;20230;-77
2022/06/10 08:15:56;;;;;;;2.00;1.40;;;;;;;;;;5041132;28;20210;-76
2022/06/10 08:18:23;;;;;;;2.20;1.40;;;;;;;;;;5047350;28;20203;-75
2022/06/10 08:23:35;;;;;;;2.97;1.40;;;;;;;;;;5045620;28;20578;-76
2022/06/10 08:26:06;;;;;;;2.38;1.27;;;;;;;;;;5047707;28;20657;-76
2022/06/10 08:28:35;;;;;;;2.42;1.45;;;;;;;;;;5045490;28;20199;-77
2022/06/10 08:31:02;;;;;;;2.97;1.30;;;;;;;;;;5047191;28;20646;-76
2022/06/10 08:33:29;;;;;;;2.33;1.50;;;;;;;;;;5048438;28;20202;-76
2022/06/10 08:35:57;;;;;;;5.07;1.40;;;;;;;;;;5039422;28;20268;-77
2022/06/10 08:38:24;;;;;;;1.70;1.20;;;;;;;;;;5051803;28;20297;-76
2022/06/10 08:40:53;;;;;;;3.75;1.83;;;;;;;;;;5047855;28;20222;-76
2022/06/10 08:43:26;;;;;;;1.80;1.10;;;;;;;;;;5043591;28;20242;-76
2022/06/10 08:45:59;;;;;;;1.92;1.30;;;;;;;;;;5036349;28;20589;-75
2022/06/10 08:48:31;;;;;;;3.40;1.40;;;;;;;;;;5048281;28;20202;-77
2022/06/10 08:51:05;;;;;;;2.45;1.55;;;;;;;;;;5046962;28;20195;-76
2022/06/10 08:53:44;;;;;;;3.08;1.67;;;;;;;;;;5048128;28;20212;-78
2022/06/10 08:56:17;;;;;;;2.28;1.20;;;;;;;;;;5050340;28;20200;-76
2022/06/10 08:58:46;;;;;;;3.38;1.65;;;;;;;;;;5044049;28;20325;-77
2022/06/10 09:01:16;;;;;;;8.18;1.90;;;;;;;;;;5043828;28;20260;-76
2022/06/10 09:03:46;;;;;;;4.80;1.27;;;;;;;;;;5046417;28;20199;-75
2022/06/10 09:06:17;;;;;;;2.72;1.52;;;;;;;;;;5050957;28;20621;-76
2022/06/10 09:08:46;;;;;;;3.15;1.45;;;;;;;;;;5037731;28;20202;-77
2022/06/10 09:11:16;;;;;;;2.30;1.63;;;;;;;;;;5051354;28;20211;-76
2022/06/10 09:13:47;;;;;;;2.42;1.70;;;;;;;;;;5052236;28;20203;-76
2022/06/10 09:16:18;;;;;;;3.17;1.48;;;;;;;;;;5045470;28;20631;-76
2022/06/10 09:18:53;;;;;;;3.33;1.48;;;;;;;;;;5052562;28;20621;-76
2022/06/10 09:21:25;;;;;;;2.03;1.20;;;;;;;;;;5041749;28;20215;-76
2022/06/10 09:23:54;;;;;;;2.13;1.45;;;;;;;;;;5040321;28;20191;-79
2022/06/10 09:26:24;;;;;;;1.90;1.15;;;;;;;;;;5052652;28;20673;-75
2022/06/10 09:28:51;;;;;;;3.92;1.83;;;;;;;;;;5048396;28;20223;-79
2022/06/10 09:31:31;;;;;;;2.05;1.63;;;;;;;;;;5045729;28;20203;-77
2022/06/10 09:34:00;;;;;;;1.13;1.00;;;;;;;;;;5038205;28;20561;-76
2022/06/10 09:36:33;;;;;;;3.60;1.52;;;;;;;;;;5037325;28;20211;-80
2022/06/10 09:39:03;;;;;;;2.00;1.42;;;;;;;;;;5042438;28;20203;-78
2022/06/10 09:41:34;;;;;;;6.72;1.33;;;;;;;;;;5053342;28;20228;-76
2022/06/10 09:44:07;;;;;;;2.58;1.48;;;;;;;;;;5046138;28;20207;-78
2022/06/10 09:46:45;;;;;;;3.95;1.60;;;;;;;;;;5045892;28;20226;-78
2022/06/10 09:49:27;;;;;;;2.33;1.20;;;;;;;;;;5038795;28;20283;-81
2022/06/10 09:51:59;;;;;;;2.72;1.40;;;;;;;;;;5041798;28;20737;-79
2022/06/10 09:54:34;;;;;;;2.85;1.20;;;;;;;;;;5029836;28;20290;-79
2022/06/10 09:57:09;;;;;;;2.27;1.10;;;;;;;;;;5040395;28;20200;-79
2022/06/10 09:59:38;;;;;;;1.83;1.10;;;;;;;;;;5039634;28;20517;-81
2022/06/10 10:02:15;;;;;;;2.95;1.55;;;;;;;;;;5041178;28;20219;-79
2022/06/10 10:05:01;;;;;;;2.00;1.60;;;;;;;;;;5047911;28;20209;-78
2022/06/10 10:07:34;;;;;;;3.90;1.40;;;;;;;;;;5028926;28;20849;-79
2022/06/10 10:10:08;;;;;;;2.83;1.40;;;;;;;;;;5029310;28;20453;-79
2022/06/10 10:12:41;;;;;;;1.87;1.40;;;;;;;;;;5028514;28;20472;-79
2022/06/10 10:15:16;;;;;;;2.20;1.20;;;;;;;;;;5037695;28;20510;-78
2022/06/10 10:17:58;;;;;;;3.60;1.20;;;;;;;;;;5052355;28;20452;-78
2022/06/10 10:20:28;;;;;;;3.20;1.40;;;;;;;;;;5046303;28;20638;-79
2022/06/10 10:23:06;;;;;;;4.60;1.73;;;;;;;;;;5035488;28;20492;-78
2022/06/10 10:25:33;;;;;;;2.78;1.00;;;;;;;;;;5047093;28;20208;-78
2022/06/10 10:28:01;;;;;;;3.72;1.38;;;;;;;;;;5046491;28;20200;-79
2022/06/10 10:30:33;;;;;;;1.75;1.20;;;;;;;;;;5034690;28;20584;-79
2022/06/10 10:33:03;;;;;;;2.67;1.50;;;;;;;;;;5064059;28;20245;-79
2022/06/10 10:35:33;;;;;;;2.72;1.00;;;;;;;;;;5048077;28;20212;-80
2022/06/10 10:38:02;;;;;;;1.38;1.00;;;;;;;;;;5048470;28;20272;-79
2022/06/10 10:40:34;;;;;;;2.05;1.20;;;;;;;;;;5046942;28;20207;-79
2022/06/10 10:43:05;;;;;;;5.55;1.75;;;;;;;;;;5041225;28;20248;-79
2022/06/10 10:45:33;;;;;;;2.15;1.40;;;;;;;;;;5043233;28;20715;-78
2022/06/10 10:48:02;;;;;;;1.80;1.10;;;;;;;;;;5049534;28;20424;-78
2022/06/10 10:50:32;;;;;;;6.03;1.70;;;;;;;;;;5030070;28;20205;-79
2022/06/10 10:53:00;;;;;;;1.40;1.15;;;;;;;;;;5047849;28;20197;-79
2022/06/10 10:55:29;;;;;;;2.42;1.75;;;;;;;;;;5043196;28;20227;-78
2022/06/10 10:58:04;;;;;;;5.05;1.40;;;;;;;;;;5040219;28;20662;-79
2022/06/10 11:00:33;;;;;;;3.53;1.35;;;;;;;;;;5042414;28;20303;-80
2022/06/10 11:03:01;;;;;;;2.70;1.17;;;;;;;;;;5045128;28;20231;-79
2022/06/10 11:05:34;;;;;;;2.03;1.17;;;;;;;;;;5038957;28;20216;-79
2022/06/10 11:08:17;;;;;;;10.40;2.17;;;;;;;;;;5047355;28;20454;-79
2022/06/10 11:11:01;;;;;;;2.30;1.05;;;;;;;;;;5048619;28;20449;-79
2022/06/10 11:13:46;;;;;;;5.93;1.90;;;;;;;;;;5040318;28;20272;-78
2022/06/10 11:16:30;;;;;;;1.45;1.30;;;;;;;;;;5039663;28;20211;-80
2022/06/10 11:19:04;;;;;;;1.80;0.93;;;;;;;;;;5039778;28;20660;-79
2022/06/10 11:21:32;;;;;;;3.30;1.35;;;;;;;;;;5043121;28;20661;-78
2022/06/10 11:24:00;;;;;;;2.85;1.40;;;;;;;;;;5045221;28;20722;-79
2022/06/10 11:26:28;;;;;;;2.35;1.30;;;;;;;;;;5042375;28;20708;-79
2022/06/10 11:29:00;;;;;;;3.40;1.40;;;;;;;;;;5038278;28;20203;-79
2022/06/10 11:31:28;;;;;;;3.35;1.58;;;;;;;;;;5041299;28;20221;-79
2022/06/10 11:33:58;;;;;;;2.60;1.27;;;;;;;;;;5045317;28;20292;-76
2022/06/10 11:36:26;;;;;;;1.63;1.50;;;;;;;;;;5040184;28;20413;-75
2022/06/10 11:38:55;;;;;;;9.20;1.50;;;;;;;;;;5038630;28;21005;-76
2022/06/10 11:41:26;;;;;;;3.20;1.23;;;;;;;;;;5036734;28;20209;-75
2022/06/10 11:43:57;;;;;;;4.17;1.20;;;;;;;;;;5044186;28;20468;-77
2022/06/10 11:46:29;;;;;;;2.07;1.50;;;;;;;;;;5044520;28;20460;-75
2022/06/10 11:48:59;;;;;;;4.60;1.10;;;;;;;;;;5043237;28;21002;-74
2022/06/10 11:51:30;;;;;;;2.07;1.20;;;;;;;;;;5045141;28;20207;-75
2022/06/10 11:53:59;;;;;;;2.33;1.30;;;;;;;;;;5035535;28;20475;-75
2022/06/10 12:02:06;;;;;;;3.13;1.23;;;;;;;;;;5039209;28;20689;-76
2022/06/10 12:04:37;;;;;;;2.22;1.20;;;;;;;;;;5047204;28;20468;-76
2022/06/10 12:07:07;;;;;;;2.33;1.20;;;;;;;;;;5034639;28;20261;-75
2022/06/10 12:09:37;;;;;;;2.05;1.10;;;;;;;;;;5034990;28;20452;-75
2022/06/10 12:12:06;;;;;;;3.83;1.40;;;;;;;;;;5039110;28;20202;-74
2022/06/10 12:14:37;;;;;;;4.57;1.40;;;;;;;;;;5044549;28;20513;-74
2022/06/10 12:17:07;;;;;;;4.90;1.20;;;;;;;;;;5051388;28;21023;-76
2022/06/10 12:19:36;;;;;;;2.30;1.50;;;;;;;;;;5071310;28;20947;-78
2022/06/10 12:22:03;;;;;;;2.00;1.30;;;;;;;;;;5040997;28;20479;-75
2022/06/10 12:24:30;;;;;;;1.57;1.20;;;;;;;;;;5042556;28;20458;-74
2022/06/10 12:26:59;;;;;;;2.40;1.50;;;;;;;;;;5043992;28;20456;-74
2022/06/10 12:29:32;;;;;;;4.70;1.53;;;;;;;;;;5044236;28;20479;-78
2022/06/10 12:32:03;;;;;;;1.80;1.40;;;;;;;;;;5039255;28;20453;-77
2022/06/10 12:34:42;;;;;;;2.70;1.20;;;;;;;;;;5046397;28;20464;-76
2022/06/10 12:37:12;;;;;;;1.87;1.57;;;;;;;;;;5048446;28;20464;-76
2022/06/10 12:39:47;;;;;;;1.60;1.10;;;;;;;;;;5040194;28;20464;-76
2022/06/10 12:42:18;;;;;;;2.20;1.10;;;;;;;;;;5038849;28;20515;-76
2022/06/10 12:44:50;;;;;;;2.73;1.47;;;;;;;;;;5045155;28;20537;-76
2022/06/10 12:47:20;;;;;;;4.57;1.40;;;;;;;;;;5046012;28;20483;-76
2022/06/10 12:49:48;;;;;;;4.43;2.40;;;;;;;;;;5037745;28;20884;-77
2022/06/10 12:52:22;;;;;;;7.23;1.43;;;;;;;;;;5047412;28;20503;-77
2022/06/10 12:54:54;;;;;;;1.83;1.00;;;;;;;;;;5052781;28;20483;-79
2022/06/10 12:57:27;;;;;;;3.10;1.60;;;;;;;;;;5048723;28;20452;-77
2022/06/10 13:00:09;;;;;;;2.37;1.60;;;;;;;;;;5048148;28;20450;-77
2022/06/10 13:02:44;;;;;;;3.53;1.20;;;;;;;;;;5045598;28;21021;-77
2022/06/10 13:05:18;;;;;;;2.30;1.77;;;;;;;;;;5034123;28;20470;-79
2022/06/10 13:07:47;;;;;;;3.07;1.30;;;;;;;;;;5042850;28;20457;-76
2022/06/10 13:10:33;;;;;;;1.57;1.33;;;;;;;;;;5046364;28;20903;-76
2022/06/10 13:13:10;;;;;;;3.03;1.70;;;;;;;;;;5038508;28;20484;-77
2022/06/10 13:15:38;;;;;;;4.07;1.40;;;;;;;;;;5043738;28;20491;-80
2022/06/10 13:18:20;;;;;;;2.27;1.20;;;;;;;;;;5043182;28;20573;-80
2022/06/10 13:20:48;;;;;;;2.35;1.40;;;;;;;;;;5047613;28;20529;-79
2022/06/10 13:23:17;;;;;;;1.90;1.30;;;;;;;;;;5048918;28;20237;-80
2022/06/10 13:25:46;;;;;;;3.20;1.20;;;;;;;;;;5049152;28;21008;-79
2022/06/10 13:28:15;;;;;;;1.83;1.50;;;;;;;;;;5048186;28;20522;-79
2022/06/10 13:30:42;;;;;;;3.63;1.33;;;;;;;;;;5047301;28;20869;-79
2022/06/10 13:33:15;;;;;;;3.70;1.30;;;;;;;;;;5046446;28;20465;-79
2022/06/10 13:35:50;;;;;;;2.50;1.77;;;;;;;;;;5045536;28;20552;-77
2022/06/10 13:38:18;;;;;;;3.50;2.10;;;;;;;;;;5047196;28;20450;-82
2022/06/10 13:40:47;;;;;;;4.03;1.90;;;;;;;;;;5041131;28;20485;-79
2022/06/10 13:43:21;;;;;;;3.10;1.70;;;;;;;;;;5045867;28;20844;-77
2022/06/10 13:45:48;;;;;;;3.83;1.90;;;;;;;;;;5048474;28;20472;-81
2022/06/10 13:48:18;;;;;;;2.83;1.40;;;;;;;;;;5043632;28;20873;-78
2022/06/10 13:51:12;;;;;;;3.63;2.07;;;;;;;;;;5048457;28;20478;-78
2022/06/10 13:53:42;;;;;;;1.70;1.40;;;;;;;;;;5049311;28;20437;-79
2022/06/10 13:56:13;;;;;;;4.10;1.40;;;;;;;;;;5043201;28;20453;-80
2022/06/10 13:58:45;;;;;;;2.07;1.07;;;;;;;;;;5036693;28;20450;-79
2022/06/10 14:01:16;;;;;;;2.57;1.67;;;;;;;;;;5049782;28;20803;-80
2022/06/10 14:03:50;;;;;;;5.40;1.37;;;;;;;;;;5052038;28;20473;-79
2022/06/10 14:06:20;;;;;;;3.33;1.80;;;;;;;;;;5051336;28;20964;-80
2022/06/10 14:08:49;;;;;;;2.37;1.40;;;;;;;;;;5046899;28;20462;-81
2022/06/10 14:11:17;;;;;;;1.43;1.17;;;;;;;;;;5050208;28;20553;-82
2022/06/10 14:13:50;;;;;;;1.50;1.40;;;;;;;;;;5051108;28;20475;-80
2022/06/10 14:16:17;;;;;;;1.93;1.70;;;;;;;;;;5049551;28;20469;-80
2022/06/10 14:18:46;;;;;;;4.17;1.77;;;;;;;;;;5048636;28;20472;-80
2022/06/10 14:21:14;;;;;;;2.47;1.13;;;;;;;;;;5042269;28;20458;-81
2022/06/10 14:23:56;;;;;;;5.20;1.20;;;;;;;;;;5051977;28;20967;-80
2022/06/10 14:26:25;;;;;;;4.90;1.50;;;;;;;;;;5057634;28;20867;-80
2022/06/10 14:28:54;;;;;;;3.70;1.20;;;;;;;;;;5045085;28;20460;-78
2022/06/10 14:31:26;;;;;;;1.90;1.23;;;;;;;;;;5051659;28;21000;-79
2022/06/10 14:33:56;;;;;;;1.20;1.10;;;;;;;;;;5051918;28;20433;-79
2022/06/10 14:36:25;;;;;;;2.47;1.23;;;;;;;;;;5043778;28;20469;-78
2022/06/10 14:39:07;;;;;;;3.67;1.17;;;;;;;;;;5051837;28;20476;-78
2022/06/10 14:41:35;;;;;;;5.40;1.60;;;;;;;;;;5049797;28;20481;-78
2022/06/10 14:44:03;;;;;;;2.67;1.27;;;;;;;;;;5042877;28;20484;-79
2022/06/10 14:46:31;;;;;;;4.30;1.40;;;;;;;;;;5050655;28;20461;-78
2022/06/10 14:48:59;;;;;;;3.77;2.07;;;;;;;;;;5049043;28;20450;-78
2022/06/10 14:51:30;;;;;;;2.33;1.13;;;;;;;;;;5034757;28;20965;-79
2022/06/10 14:53:58;;;;;;;2.10;1.10;;;;;;;;;;5048936;28;20493;-79
2022/06/10 14:56:30;;;;;;;2.00;1.03;;;;;;;;;;5049646;28;20770;-78
2022/06/10 14:58:58;;;;;;;2.60;1.33;;;;;;;;;;5044544;28;20465;-80
2022/06/10 15:01:26;;;;;;;4.20;1.30;;;;;;;;;;5033846;28;20880;-78
2022/06/10 15:03:53;;;;;;;3.33;1.23;;;;;;;;;;5034176;28;20613;-81
2022/06/10 15:06:23;;;;;;;2.17;1.50;;;;;;;;;;5045634;28;20968;-79
2022/06/10 15:08:51;;;;;;;3.67;1.20;;;;;;;;;;5051433;28;20465;-80
2022/06/10 15:11:19;;;;;;;5.23;1.90;;;;;;;;;;5048771;28;20468;-80
2022/06/10 15:13:47;;;;;;;2.20;1.17;;;;;;;;;;5050311;28;20457;-79